sensor_id;sensor_type;location;lat;lon;timestamp;pressure;altitude;pressure_sealevel;temperature;humidity
68871;BME280;55906;52.278;6.808;2023-05-29T00:01:41;102234.44;;;12.57;69.17
68871;BME280;55906;52.278;6.808;2023-05-29T00:04:07;102244.88;;;12.54;69.04
68871;BME280;55906;52.278;6.808;2023-05-29T00:06:34;102246.88;;;12.60;68.95
68871;BME280;55906;52.278;6.808;2023-05-29T00:09:02;102232.53;;;12.53;68.65
68871;BME280;55906;52.278;6.808;2023-05-29T00:11:29;102241.22;;;12.50;69.19
68871;BME280;55906;52.278;6.808;2023-05-29T00:13:56;102237.44;;;12.44;69.37
68871;BME280;55906;52.278;6.808;2023-05-29T00:16:23;102232.94;;;12.41;68.76
68871;BME280;55906;52.278;6.808;2023-05-29T00:18:49;102244.41;;;12.42;68.80
68871;BME280;55906;52.278;6.808;2023-05-29T00:21:17;102249.91;;;12.48;68.49
68871;BME280;55906;52.278;6.808;2023-05-29T00:23:44;102238.88;;;12.36;68.86
68871;BME280;55906;52.278;6.808;2023-05-29T00:26:12;102249.56;;;12.39;68.84
68871;BME280;55906;52.278;6.808;2023-05-29T00:28:42;102248.47;;;12.34;69.09
68871;BME280;55906;52.278;6.808;2023-05-29T00:31:08;102247.63;;;12.35;69.68
68871;BME280;55906;52.278;6.808;2023-05-29T00:33:37;102248.16;;;12.26;69.09
68871;BME280;55906;52.278;6.808;2023-05-29T00:36:03;102244.78;;;12.30;69.30
68871;BME280;55906;52.278;6.808;2023-05-29T00:38:30;102255.94;;;12.23;70.08
68871;BME280;55906;52.278;6.808;2023-05-29T00:40:57;102248.91;;;12.24;68.51
68871;BME280;55906;52.278;6.808;2023-05-29T00:43:25;102242.56;;;12.18;69.27
68871;BME280;55906;52.278;6.808;2023-05-29T00:45:52;102250.66;;;12.23;68.32
68871;BME280;55906;52.278;6.808;2023-05-29T00:48:19;102251.94;;;12.12;70.39
68871;BME280;55906;52.278;6.808;2023-05-29T00:50:46;102247.72;;;12.15;69.28
68871;BME280;55906;52.278;6.808;2023-05-29T00:53:13;102260.91;;;12.15;69.36
68871;BME280;55906;52.278;6.808;2023-05-29T00:55:40;102263.03;;;12.03;70.51
68871;BME280;55906;52.278;6.808;2023-05-29T00:58:07;102264.06;;;12.07;69.59
68871;BME280;55906;52.278;6.808;2023-05-29T01:00:35;102270.81;;;12.00;69.72
68871;BME280;55906;52.278;6.808;2023-05-29T01:03:04;102265.91;;;11.89;70.24
68871;BME280;55906;52.278;6.808;2023-05-29T01:05:33;102264.38;;;11.94;70.21
68871;BME280;55906;52.278;6.808;2023-05-29T01:08:01;102260.81;;;11.93;69.67
68871;BME280;55906;52.278;6.808;2023-05-29T01:10:28;102268.88;;;11.96;70.27
68871;BME280;55906;52.278;6.808;2023-05-29T01:12:59;102267.06;;;11.95;70.21
68871;BME280;55906;52.278;6.808;2023-05-29T01:15:36;102265.00;;;11.88;70.97
68871;BME280;55906;52.278;6.808;2023-05-29T01:18:22;102273.63;;;11.84;71.14
68871;BME280;55906;52.278;6.808;2023-05-29T01:20:53;102266.41;;;11.80;70.12
68871;BME280;55906;52.278;6.808;2023-05-29T01:23:45;102271.63;;;11.78;71.48
68871;BME280;55906;52.278;6.808;2023-05-29T01:26:34;102277.19;;;11.67;72.22
68871;BME280;55906;52.278;6.808;2023-05-29T01:29:04;102275.53;;;11.69;71.08
68871;BME280;55906;52.278;6.808;2023-05-29T01:31:34;102282.75;;;11.73;70.88
68871;BME280;55906;52.278;6.808;2023-05-29T01:34:01;102277.88;;;11.63;70.89
68871;BME280;55906;52.278;6.808;2023-05-29T01:36:28;102288.38;;;11.61;70.71
68871;BME280;55906;52.278;6.808;2023-05-29T01:38:57;102292.03;;;11.65;70.65
68871;BME280;55906;52.278;6.808;2023-05-29T01:41:25;102293.56;;;11.60;71.24
68871;BME280;55906;52.278;6.808;2023-05-29T01:43:54;102291.50;;;11.52;71.57
68871;BME280;55906;52.278;6.808;2023-05-29T01:46:22;102291.63;;;11.55;71.57
68871;BME280;55906;52.278;6.808;2023-05-29T01:48:50;102292.53;;;11.56;71.11
68871;BME280;55906;52.278;6.808;2023-05-29T01:51:17;102289.69;;;11.51;71.18
68871;BME280;55906;52.278;6.808;2023-05-29T01:53:44;102297.53;;;11.50;71.04
68871;BME280;55906;52.278;6.808;2023-05-29T01:56:11;102299.97;;;11.45;72.71
68871;BME280;55906;52.278;6.808;2023-05-29T01:58:38;102301.63;;;11.43;71.39
68871;BME280;55906;52.278;6.808;2023-05-29T02:01:09;102305.22;;;11.45;71.54
68871;BME280;55906;52.278;6.808;2023-05-29T02:03:36;102302.38;;;11.41;71.86
68871;BME280;55906;52.278;6.808;2023-05-29T02:06:03;102303.28;;;11.41;71.64
68871;BME280;55906;52.278;6.808;2023-05-29T02:08:29;102304.59;;;11.32;72.20
68871;BME280;55906;52.278;6.808;2023-05-29T02:10:56;102308.47;;;11.40;71.10
68871;BME280;55906;52.278;6.808;2023-05-29T02:13:22;102303.00;;;11.35;72.41
68871;BME280;55906;52.278;6.808;2023-05-29T02:15:49;102299.13;;;11.27;72.41
68871;BME280;55906;52.278;6.808;2023-05-29T02:18:17;102301.06;;;11.31;71.26
68871;BME280;55906;52.278;6.808;2023-05-29T02:20:44;102305.16;;;11.25;72.01
68871;BME280;55906;52.278;6.808;2023-05-29T02:23:11;102300.78;;;11.25;71.13
68871;BME280;55906;52.278;6.808;2023-05-29T02:25:38;102301.47;;;11.21;71.66
68871;BME280;55906;52.278;6.808;2023-05-29T02:28:05;102296.19;;;11.21;71.53
68871;BME280;55906;52.278;6.808;2023-05-29T02:30:32;102294.53;;;11.23;70.83
68871;BME280;55906;52.278;6.808;2023-05-29T02:32:59;102286.34;;;11.17;71.27
68871;BME280;55906;52.278;6.808;2023-05-29T02:35:27;102294.03;;;11.12;71.25
68871;BME280;55906;52.278;6.808;2023-05-29T02:37:54;102295.28;;;11.01;73.01
68871;BME280;55906;52.278;6.808;2023-05-29T02:40:20;102295.41;;;11.04;71.90
68871;BME280;55906;52.278;6.808;2023-05-29T02:42:47;102304.28;;;11.06;72.07
68871;BME280;55906;52.278;6.808;2023-05-29T02:45:14;102306.78;;;11.03;71.90
68871;BME280;55906;52.278;6.808;2023-05-29T02:47:40;102302.34;;;11.02;71.49
68871;BME280;55906;52.278;6.808;2023-05-29T02:50:08;102297.84;;;11.00;71.89
68871;BME280;55906;52.278;6.808;2023-05-29T02:52:36;102313.34;;;10.94;73.08
68871;BME280;55906;52.278;6.808;2023-05-29T02:55:03;102309.75;;;10.92;72.84
68871;BME280;55906;52.278;6.808;2023-05-29T02:57:31;102315.06;;;10.93;72.01
68871;BME280;55906;52.278;6.808;2023-05-29T02:59:57;102320.28;;;10.92;71.74
68871;BME280;55906;52.278;6.808;2023-05-29T03:02:24;102326.47;;;10.74;74.00
68871;BME280;55906;52.278;6.808;2023-05-29T03:04:51;102324.94;;;10.79;72.66
68871;BME280;55906;52.278;6.808;2023-05-29T03:07:19;102325.09;;;10.82;72.75
68871;BME280;55906;52.278;6.808;2023-05-29T03:09:47;102321.19;;;10.74;73.34
68871;BME280;55906;52.278;6.808;2023-05-29T03:12:13;102321.34;;;10.77;72.48
68871;BME280;55906;52.278;6.808;2023-05-29T03:14:40;102323.97;;;10.77;71.98
68871;BME280;55906;52.278;6.808;2023-05-29T03:17:07;102308.84;;;10.73;73.14
68871;BME280;55906;52.278;6.808;2023-05-29T03:19:33;102318.72;;;10.77;72.75
68871;BME280;55906;52.278;6.808;2023-05-29T03:22:00;102310.88;;;10.79;72.15
68871;BME280;55906;52.278;6.808;2023-05-29T03:24:27;102304.78;;;10.80;72.13
68871;BME280;55906;52.278;6.808;2023-05-29T03:26:55;102305.63;;;10.79;72.56
68871;BME280;55906;52.278;6.808;2023-05-29T03:29:22;102298.25;;;10.72;72.23
68871;BME280;55906;52.278;6.808;2023-05-29T03:31:48;102301.50;;;10.66;72.55
68871;BME280;55906;52.278;6.808;2023-05-29T03:34:15;102308.13;;;10.58;73.78
68871;BME280;55906;52.278;6.808;2023-05-29T03:36:42;102309.84;;;10.57;73.42
68871;BME280;55906;52.278;6.808;2023-05-29T03:39:08;102304.94;;;10.65;72.30
68871;BME280;55906;52.278;6.808;2023-05-29T03:41:35;102310.38;;;10.68;71.79
68871;BME280;55906;52.278;6.808;2023-05-29T03:44:03;102303.81;;;10.60;73.39
68871;BME280;55906;52.278;6.808;2023-05-29T03:46:31;102312.94;;;10.67;72.35
68871;BME280;55906;52.278;6.808;2023-05-29T03:48:58;102309.25;;;10.63;72.15
68871;BME280;55906;52.278;6.808;2023-05-29T03:51:24;102313.81;;;10.67;71.78
68871;BME280;55906;52.278;6.808;2023-05-29T03:53:51;102326.09;;;10.49;73.58
68871;BME280;55906;52.278;6.808;2023-05-29T03:56:18;102324.88;;;10.60;72.98
68871;BME280;55906;52.278;6.808;2023-05-29T03:58:44;102323.31;;;10.64;72.53
68871;BME280;55906;52.278;6.808;2023-05-29T04:01:12;102333.06;;;10.66;72.67
68871;BME280;55906;52.278;6.808;2023-05-29T04:03:39;102333.00;;;10.65;72.70
68871;BME280;55906;52.278;6.808;2023-05-29T04:06:06;102333.91;;;10.65;72.65
68871;BME280;55906;52.278;6.808;2023-05-29T04:08:33;102331.81;;;10.58;73.41
68871;BME280;55906;52.278;6.808;2023-05-29T04:11:00;102326.91;;;10.66;72.69
68871;BME280;55906;52.278;6.808;2023-05-29T04:13:28;102326.38;;;10.73;71.99
68871;BME280;55906;52.278;6.808;2023-05-29T04:15:55;102324.66;;;10.73;72.17
68871;BME280;55906;52.278;6.808;2023-05-29T04:18:23;102328.94;;;10.71;72.12
68871;BME280;55906;52.278;6.808;2023-05-29T04:20:51;102332.63;;;10.75;72.01
68871;BME280;55906;52.278;6.808;2023-05-29T04:23:18;102326.59;;;10.77;71.91
68871;BME280;55906;52.278;6.808;2023-05-29T04:25:45;102333.22;;;10.69;72.56
68871;BME280;55906;52.278;6.808;2023-05-29T04:28:12;102338.78;;;10.75;72.98
68871;BME280;55906;52.278;6.808;2023-05-29T04:30:38;102349.00;;;10.87;71.26
68871;BME280;55906;52.278;6.808;2023-05-29T04:33:07;102355.72;;;10.80;72.30
68871;BME280;55906;52.278;6.808;2023-05-29T04:35:36;102363.75;;;10.83;71.66
68871;BME280;55906;52.278;6.808;2023-05-29T04:38:02;102366.84;;;10.93;71.12
68871;BME280;55906;52.278;6.808;2023-05-29T04:40:30;102368.63;;;10.94;71.46
68871;BME280;55906;52.278;6.808;2023-05-29T04:42:57;102367.28;;;11.02;70.84
68871;BME280;55906;52.278;6.808;2023-05-29T04:45:27;102371.31;;;11.13;70.32
68871;BME280;55906;52.278;6.808;2023-05-29T04:47:54;102380.59;;;11.05;71.06
68871;BME280;55906;52.278;6.808;2023-05-29T04:50:22;102364.19;;;11.10;71.02
68871;BME280;55906;52.278;6.808;2023-05-29T04:52:50;102370.50;;;11.14;70.85
68871;BME280;55906;52.278;6.808;2023-05-29T04:55:17;102370.66;;;10.99;71.48
68871;BME280;55906;52.278;6.808;2023-05-29T04:57:43;102375.63;;;11.11;70.37
68871;BME280;55906;52.278;6.808;2023-05-29T05:00:11;102370.25;;;11.27;69.73
68871;BME280;55906;52.278;6.808;2023-05-29T05:02:40;102373.16;;;11.33;70.00
68871;BME280;55906;52.278;6.808;2023-05-29T05:05:08;102370.53;;;11.33;69.87
68871;BME280;55906;52.278;6.808;2023-05-29T05:07:34;102377.31;;;11.28;69.60
68871;BME280;55906;52.278;6.808;2023-05-29T05:10:03;102380.56;;;11.22;70.47
68871;BME280;55906;52.278;6.808;2023-05-29T05:12:29;102378.03;;;11.43;69.26
68871;BME280;55906;52.278;6.808;2023-05-29T05:14:56;102373.34;;;11.55;68.92
68871;BME280;55906;52.278;6.808;2023-05-29T05:17:23;102366.25;;;11.54;68.77
68871;BME280;55906;52.278;6.808;2023-05-29T05:19:49;102373.06;;;11.69;67.94
68871;BME280;55906;52.278;6.808;2023-05-29T05:22:17;102379.34;;;11.71;68.15
68871;BME280;55906;52.278;6.808;2023-05-29T05:24:44;102376.66;;;11.51;68.77
68871;BME280;55906;52.278;6.808;2023-05-29T05:27:12;102382.19;;;11.75;68.12
68871;BME280;55906;52.278;6.808;2023-05-29T05:29:38;102391.00;;;11.76;67.97
68871;BME280;55906;52.278;6.808;2023-05-29T05:32:06;102386.94;;;11.82;67.29
68871;BME280;55906;52.278;6.808;2023-05-29T05:34:33;102387.91;;;11.84;67.25
68871;BME280;55906;52.278;6.808;2023-05-29T05:36:59;102391.09;;;11.97;66.75
68871;BME280;55906;52.278;6.808;2023-05-29T05:39:27;102385.88;;;11.98;66.81
68871;BME280;55906;52.278;6.808;2023-05-29T05:41:54;102393.56;;;12.13;66.29
68871;BME280;55906;52.278;6.808;2023-05-29T05:44:22;102384.50;;;11.87;66.38
68871;BME280;55906;52.278;6.808;2023-05-29T05:46:49;102387.00;;;12.03;66.30
68871;BME280;55906;52.278;6.808;2023-05-29T05:49:15;102390.59;;;12.05;66.43
68871;BME280;55906;52.278;6.808;2023-05-29T05:51:42;102397.31;;;12.18;65.56
68871;BME280;55906;52.278;6.808;2023-05-29T05:54:09;102393.66;;;12.35;65.00
68871;BME280;55906;52.278;6.808;2023-05-29T05:56:35;102381.94;;;12.29;65.59
68871;BME280;55906;52.278;6.808;2023-05-29T05:59:02;102387.03;;;12.45;64.75
68871;BME280;55906;52.278;6.808;2023-05-29T06:01:30;102389.31;;;12.57;64.02
68871;BME280;55906;52.278;6.808;2023-05-29T06:03:58;102388.06;;;12.69;64.16
68871;BME280;55906;52.278;6.808;2023-05-29T06:06:24;102388.41;;;12.77;63.39
68871;BME280;55906;52.278;6.808;2023-05-29T06:08:51;102391.44;;;12.65;63.88
68871;BME280;55906;52.278;6.808;2023-05-29T06:11:18;102391.81;;;12.74;63.56
68871;BME280;55906;52.278;6.808;2023-05-29T06:13:45;102392.31;;;12.87;63.30
68871;BME280;55906;52.278;6.808;2023-05-29T06:16:11;102394.72;;;13.01;63.04
68871;BME280;55906;52.278;6.808;2023-05-29T06:18:39;102391.59;;;12.91;62.86
68871;BME280;55906;52.278;6.808;2023-05-29T06:21:06;102389.75;;;13.09;62.04
68871;BME280;55906;52.278;6.808;2023-05-29T06:23:34;102392.44;;;13.10;62.08
68871;BME280;55906;52.278;6.808;2023-05-29T06:26:01;102404.88;;;13.13;62.17
68871;BME280;55906;52.278;6.808;2023-05-29T06:28:28;102395.78;;;13.27;61.59
68871;BME280;55906;52.278;6.808;2023-05-29T06:30:55;102406.84;;;13.39;61.08
68871;BME280;55906;52.278;6.808;2023-05-29T06:33:21;102393.50;;;13.36;61.34
68871;BME280;55906;52.278;6.808;2023-05-29T06:35:50;102390.09;;;13.63;60.62
68871;BME280;55906;52.278;6.808;2023-05-29T06:38:17;102398.38;;;13.72;60.10
68871;BME280;55906;52.278;6.808;2023-05-29T06:40:44;102397.09;;;13.85;59.81
68871;BME280;55906;52.278;6.808;2023-05-29T06:43:10;102389.44;;;13.92;58.75
68871;BME280;55906;52.278;6.808;2023-05-29T06:45:37;102394.50;;;13.86;59.70
68871;BME280;55906;52.278;6.808;2023-05-29T06:48:03;102395.63;;;13.93;58.34
68871;BME280;55906;52.278;6.808;2023-05-29T06:50:31;102402.50;;;14.12;58.24
68871;BME280;55906;52.278;6.808;2023-05-29T06:53:00;102402.88;;;14.22;57.76
68871;BME280;55906;52.278;6.808;2023-05-29T06:55:27;102397.84;;;14.30;57.20
68871;BME280;55906;52.278;6.808;2023-05-29T06:57:53;102408.09;;;14.43;57.39
68871;BME280;55906;52.278;6.808;2023-05-29T07:00:20;102407.78;;;14.59;57.30
68871;BME280;55906;52.278;6.808;2023-05-29T07:02:48;102405.69;;;14.76;56.49
68871;BME280;55906;52.278;6.808;2023-05-29T07:05:16;102410.75;;;14.68;56.82
68871;BME280;55906;52.278;6.808;2023-05-29T07:07:43;102406.25;;;14.93;56.05
68871;BME280;55906;52.278;6.808;2023-05-29T07:10:12;102406.16;;;14.90;55.80
68871;BME280;55906;52.278;6.808;2023-05-29T07:12:39;102406.22;;;14.91;55.16
68871;BME280;55906;52.278;6.808;2023-05-29T07:15:06;102412.81;;;15.04;55.25
68871;BME280;55906;52.278;6.808;2023-05-29T07:17:33;102420.00;;;15.08;55.11
68871;BME280;55906;52.278;6.808;2023-05-29T07:19:59;102407.00;;;14.89;54.96
68871;BME280;55906;52.278;6.808;2023-05-29T07:22:26;102415.09;;;14.93;54.75
68871;BME280;55906;52.278;6.808;2023-05-29T07:24:53;102419.31;;;15.14;54.44
68871;BME280;55906;52.278;6.808;2023-05-29T07:27:21;102431.00;;;15.20;53.68
68871;BME280;55906;52.278;6.808;2023-05-29T07:29:47;102422.50;;;15.30;53.20
68871;BME280;55906;52.278;6.808;2023-05-29T07:32:15;102420.72;;;15.58;52.90
68871;BME280;55906;52.278;6.808;2023-05-29T07:34:42;102427.59;;;15.80;52.42
68871;BME280;55906;52.278;6.808;2023-05-29T07:37:08;102427.75;;;15.84;51.88
68871;BME280;55906;52.278;6.808;2023-05-29T07:39:35;102425.16;;;15.87;52.21
68871;BME280;55906;52.278;6.808;2023-05-29T07:42:02;102423.59;;;15.94;51.64
68871;BME280;55906;52.278;6.808;2023-05-29T07:44:30;102427.59;;;16.10;50.42
68871;BME280;55906;52.278;6.808;2023-05-29T07:46:57;102417.91;;;16.12;51.31
68871;BME280;55906;52.278;6.808;2023-05-29T07:49:24;102428.06;;;16.26;50.52
68871;BME280;55906;52.278;6.808;2023-05-29T07:51:50;102421.09;;;16.64;50.53
68871;BME280;55906;52.278;6.808;2023-05-29T07:54:17;102425.63;;;16.67;50.01
68871;BME280;55906;52.278;6.808;2023-05-29T07:56:46;102417.63;;;16.66;49.77
68871;BME280;55906;52.278;6.808;2023-05-29T07:59:12;102420.09;;;16.91;49.06
68871;BME280;55906;52.278;6.808;2023-05-29T08:01:40;102413.97;;;16.95;48.22
68871;BME280;55906;52.278;6.808;2023-05-29T08:04:08;102422.13;;;17.03;48.67
68871;BME280;55906;52.278;6.808;2023-05-29T08:06:35;102418.13;;;17.20;47.56
68871;BME280;55906;52.278;6.808;2023-05-29T08:09:02;102422.63;;;17.22;46.98
68871;BME280;55906;52.278;6.808;2023-05-29T08:11:30;102423.28;;;17.14;48.11
68871;BME280;55906;52.278;6.808;2023-05-29T08:13:57;102423.28;;;17.14;47.20
68871;BME280;55906;52.278;6.808;2023-05-29T08:16:24;102434.91;;;17.17;47.04
68871;BME280;55906;52.278;6.808;2023-05-29T08:18:54;102420.38;;;17.41;46.92
68871;BME280;55906;52.278;6.808;2023-05-29T08:21:21;102428.00;;;17.65;46.26
68871;BME280;55906;52.278;6.808;2023-05-29T08:23:48;102415.72;;;17.70;46.34
68871;BME280;55906;52.278;6.808;2023-05-29T08:26:14;102418.94;;;17.96;46.17
68871;BME280;55906;52.278;6.808;2023-05-29T08:28:41;102418.31;;;18.09;45.94
68871;BME280;55906;52.278;6.808;2023-05-29T08:31:08;102424.03;;;18.27;45.61
68871;BME280;55906;52.278;6.808;2023-05-29T08:33:34;102414.72;;;18.50;45.66
68871;BME280;55906;52.278;6.808;2023-05-29T08:36:03;102415.22;;;18.78;45.33
68871;BME280;55906;52.278;6.808;2023-05-29T08:38:30;102413.59;;;18.86;44.00
68871;BME280;55906;52.278;6.808;2023-05-29T08:40:57;102419.72;;;18.80;43.97
68871;BME280;55906;52.278;6.808;2023-05-29T08:43:24;102421.88;;;19.03;44.54
68871;BME280;55906;52.278;6.808;2023-05-29T08:45:53;102419.66;;;19.33;43.82
68871;BME280;55906;52.278;6.808;2023-05-29T08:48:23;102418.63;;;19.24;43.00
68871;BME280;55906;52.278;6.808;2023-05-29T08:50:53;102428.38;;;19.22;43.13
68871;BME280;55906;52.278;6.808;2023-05-29T08:53:22;102425.75;;;19.23;42.05
68871;BME280;55906;52.278;6.808;2023-05-29T08:55:51;102419.50;;;19.23;42.29
68871;BME280;55906;52.278;6.808;2023-05-29T08:58:19;102418.97;;;19.46;42.33
68871;BME280;55906;52.278;6.808;2023-05-29T09:00:47;102426.63;;;19.24;41.92
68871;BME280;55906;52.278;6.808;2023-05-29T09:03:14;102421.28;;;19.81;42.14
68871;BME280;55906;52.278;6.808;2023-05-29T09:05:41;102420.84;;;20.20;41.27
68871;BME280;55906;52.278;6.808;2023-05-29T09:08:09;102424.78;;;20.53;40.75
68871;BME280;55906;52.278;6.808;2023-05-29T09:10:39;102424.94;;;20.68;39.37
68871;BME280;55906;52.278;6.808;2023-05-29T09:13:07;102419.66;;;20.75;38.83
68871;BME280;55906;52.278;6.808;2023-05-29T09:15:35;102423.22;;;20.76;38.45
68871;BME280;55906;52.278;6.808;2023-05-29T09:18:04;102422.44;;;20.85;38.93
68871;BME280;55906;52.278;6.808;2023-05-29T09:20:31;102411.97;;;21.15;37.03
68871;BME280;55906;52.278;6.808;2023-05-29T09:22:59;102414.97;;;21.59;37.51
68871;BME280;55906;52.278;6.808;2023-05-29T09:25:28;102406.94;;;21.64;36.37
68871;BME280;55906;52.278;6.808;2023-05-29T09:27:58;102410.41;;;21.43;38.02
68871;BME280;55906;52.278;6.808;2023-05-29T09:30:36;102407.25;;;22.23;35.79
68871;BME280;55906;52.278;6.808;2023-05-29T09:33:03;102409.94;;;22.26;35.61
68871;BME280;55906;52.278;6.808;2023-05-29T09:35:38;102412.69;;;22.83;35.06
68871;BME280;55906;52.278;6.808;2023-05-29T09:38:05;102410.00;;;23.12;35.92
68871;BME280;55906;52.278;6.808;2023-05-29T09:40:33;102416.28;;;23.05;33.53
68871;BME280;55906;52.278;6.808;2023-05-29T09:43:06;102410.84;;;23.40;34.25
68871;BME280;55906;52.278;6.808;2023-05-29T09:45:37;102418.78;;;23.96;34.33
68871;BME280;55906;52.278;6.808;2023-05-29T09:48:05;102411.75;;;23.57;32.53
68871;BME280;55906;52.278;6.808;2023-05-29T09:50:33;102404.59;;;23.60;32.85
68871;BME280;55906;52.278;6.808;2023-05-29T09:53:00;102406.31;;;23.77;32.13
68871;BME280;55906;52.278;6.808;2023-05-29T09:55:27;102410.88;;;23.41;33.30
68871;BME280;55906;52.278;6.808;2023-05-29T09:57:57;102410.75;;;23.82;32.95
68871;BME280;55906;52.278;6.808;2023-05-29T10:00:26;102415.19;;;23.92;31.84
68871;BME280;55906;52.278;6.808;2023-05-29T10:02:53;102397.09;;;24.30;31.07
68871;BME280;55906;52.278;6.808;2023-05-29T10:05:21;102404.34;;;24.09;31.51
68871;BME280;55906;52.278;6.808;2023-05-29T10:07:49;102390.69;;;24.49;31.29
68871;BME280;55906;52.278;6.808;2023-05-29T10:10:18;102399.41;;;24.83;30.87
68871;BME280;55906;52.278;6.808;2023-05-29T10:12:48;102392.91;;;25.10;29.60
68871;BME280;55906;52.278;6.808;2023-05-29T10:15:16;102384.41;;;24.47;29.92
68871;BME280;55906;52.278;6.808;2023-05-29T10:17:50;102383.03;;;25.09;28.65
68871;BME280;55906;52.278;6.808;2023-05-29T10:20:18;102382.38;;;25.70;29.59
68871;BME280;55906;52.278;6.808;2023-05-29T10:22:49;102380.19;;;26.02;29.08
68871;BME280;55906;52.278;6.808;2023-05-29T10:25:18;102378.97;;;26.80;28.53
68871;BME280;55906;52.278;6.808;2023-05-29T10:27:46;102385.69;;;26.56;27.43
68871;BME280;55906;52.278;6.808;2023-05-29T10:30:24;102378.00;;;26.29;27.33
68871;BME280;55906;52.278;6.808;2023-05-29T10:33:07;102388.84;;;26.26;26.84
68871;BME280;55906;52.278;6.808;2023-05-29T10:35:40;102384.56;;;26.09;27.45
68871;BME280;55906;52.278;6.808;2023-05-29T10:38:11;102387.09;;;25.48;27.84
68871;BME280;55906;52.278;6.808;2023-05-29T10:40:38;102381.19;;;25.14;27.18
68871;BME280;55906;52.278;6.808;2023-05-29T10:43:05;102382.84;;;25.27;27.65
68871;BME280;55906;52.278;6.808;2023-05-29T10:45:50;102374.47;;;26.24;26.20
68871;BME280;55906;52.278;6.808;2023-05-29T10:48:44;102376.50;;;26.08;26.57
68871;BME280;55906;52.278;6.808;2023-05-29T10:51:27;102385.31;;;25.48;26.72
68871;BME280;55906;52.278;6.808;2023-05-29T10:53:56;102384.50;;;25.40;27.46
68871;BME280;55906;52.278;6.808;2023-05-29T10:56:27;102375.72;;;25.98;27.16
68871;BME280;55906;52.278;6.808;2023-05-29T10:58:55;102375.00;;;26.50;26.04
68871;BME280;55906;52.278;6.808;2023-05-29T11:01:23;102369.94;;;26.26;25.40
68871;BME280;55906;52.278;6.808;2023-05-29T11:03:54;102359.25;;;26.20;25.33
68871;BME280;55906;52.278;6.808;2023-05-29T11:06:21;102371.91;;;25.41;26.78
68871;BME280;55906;52.278;6.808;2023-05-29T11:08:54;102366.06;;;26.45;26.16
68871;BME280;55906;52.278;6.808;2023-05-29T11:11:29;102365.88;;;26.57;25.79
68871;BME280;55906;52.278;6.808;2023-05-29T11:14:00;102373.56;;;25.52;27.25
68871;BME280;55906;52.278;6.808;2023-05-29T11:16:37;102368.50;;;26.62;26.29
68871;BME280;55906;52.278;6.808;2023-05-29T11:19:08;102362.84;;;27.26;25.90
68871;BME280;55906;52.278;6.808;2023-05-29T11:21:53;102365.91;;;26.54;25.35
68871;BME280;55906;52.278;6.808;2023-05-29T11:24:26;102363.88;;;26.68;25.54
68871;BME280;55906;52.278;6.808;2023-05-29T11:26:54;102369.69;;;27.46;25.13
68871;BME280;55906;52.278;6.808;2023-05-29T11:29:23;102365.91;;;27.08;23.74
68871;BME280;55906;52.278;6.808;2023-05-29T11:31:57;102364.66;;;27.26;23.76
68871;BME280;55906;52.278;6.808;2023-05-29T11:34:28;102380.81;;;26.78;24.37
68871;BME280;55906;52.278;6.808;2023-05-29T11:36:56;102369.13;;;26.77;24.83
68871;BME280;55906;52.278;6.808;2023-05-29T11:39:23;102362.75;;;26.82;24.42
68871;BME280;55906;52.278;6.808;2023-05-29T11:41:50;102366.59;;;26.68;25.01
68871;BME280;55906;52.278;6.808;2023-05-29T11:44:18;102368.94;;;26.88;24.51
68871;BME280;55906;52.278;6.808;2023-05-29T11:46:45;102368.06;;;26.32;24.82
68871;BME280;55906;52.278;6.808;2023-05-29T11:49:12;102361.72;;;26.36;25.20
68871;BME280;55906;52.278;6.808;2023-05-29T11:51:41;102365.56;;;26.75;24.52
68871;BME280;55906;52.278;6.808;2023-05-29T11:54:12;102361.84;;;27.33;24.33
68871;BME280;55906;52.278;6.808;2023-05-29T11:56:38;102362.72;;;26.28;25.01
68871;BME280;55906;52.278;6.808;2023-05-29T11:59:10;102364.59;;;26.79;24.45
68871;BME280;55906;52.278;6.808;2023-05-29T12:01:37;102365.28;;;27.41;24.02
68871;BME280;55906;52.278;6.808;2023-05-29T12:04:14;102360.66;;;27.47;24.21
68871;BME280;55906;52.278;6.808;2023-05-29T12:06:42;102354.72;;;27.74;23.99
68871;BME280;55906;52.278;6.808;2023-05-29T12:09:23;102349.78;;;27.50;23.82
68871;BME280;55906;52.278;6.808;2023-05-29T12:11:50;102364.97;;;27.98;24.01
68871;BME280;55906;52.278;6.808;2023-05-29T12:14:16;102361.28;;;28.41;23.81
68871;BME280;55906;52.278;6.808;2023-05-29T12:16:43;102354.44;;;28.99;23.49
68871;BME280;55906;52.278;6.808;2023-05-29T12:19:10;102347.31;;;28.95;22.94
68871;BME280;55906;52.278;6.808;2023-05-29T12:21:42;102348.06;;;29.65;23.29
68871;BME280;55906;52.278;6.808;2023-05-29T12:24:10;102349.06;;;29.90;23.28
68871;BME280;55906;52.278;6.808;2023-05-29T12:26:37;102351.22;;;29.79;23.00
68871;BME280;55906;52.278;6.808;2023-05-29T12:29:04;102354.25;;;30.00;22.54
68871;BME280;55906;52.278;6.808;2023-05-29T12:31:31;102349.50;;;30.08;22.84
68871;BME280;55906;52.278;6.808;2023-05-29T12:34:00;102353.25;;;30.04;22.42
68871;BME280;55906;52.278;6.808;2023-05-29T12:36:28;102353.22;;;30.05;22.98
68871;BME280;55906;52.278;6.808;2023-05-29T12:38:57;102347.53;;;30.13;22.48
68871;BME280;55906;52.278;6.808;2023-05-29T12:41:25;102347.09;;;29.97;21.74
68871;BME280;55906;52.278;6.808;2023-05-29T12:43:53;102347.19;;;30.23;21.87
68871;BME280;55906;52.278;6.808;2023-05-29T12:46:20;102348.53;;;30.91;21.92
68871;BME280;55906;52.278;6.808;2023-05-29T12:48:47;102352.78;;;31.49;20.95
68871;BME280;55906;52.278;6.808;2023-05-29T12:51:15;102345.38;;;31.53;20.26
68871;BME280;55906;52.278;6.808;2023-05-29T12:53:41;102342.47;;;31.08;20.95
68871;BME280;55906;52.278;6.808;2023-05-29T12:56:09;102336.97;;;31.36;20.03